NFTL/HPA METAR and TAF weather

Enter ICAO airport designator
Station Type Date Time Source
NFTL METAR 2021/01/20 22:00 UTC NOAA

NFTL 202200Z 35005KT 9999 SCT018TCU BKN280 30/26 Q1010


Station Type Date Time Source
NFTL Decoded METAR 2021/01/20 22:00 UTC NOAA

Haapai, Tonga (NFTL) 19-48S 174-21W 3M
Jan 20, 2021 - 05:00 PM EST / 2021.01.20 2200 UTC
Wind: from the N (350 degrees) at 6 MPH (5 KT):0
Visibility: greater than 7 mile(s):0
Sky conditions: mostly cloudy
Weather: Towering cumulus clouds observed
Temperature: 86 F (30 C)
Heat index: 99.3 F (37.4 C):1
Dew Point: 78 F (26 C)
Relative Humidity: 79%
Pressure (altimeter): 29.83 in. Hg (1010 hPa)
ob: NFTL 202200Z 35005KT 9999 SCT018TCU BKN280 30/26 Q1010
cycle: 22

Station Type Date Time Source
NFTL TAF 2018/02/21 17:19 UTC NOAA

TAF NFTL 211605Z 2117/2208 12010KT 9999 SCT018

Example: see airport list